Time;durP1;ratioP1;P1;durP2;ratioP2;P2;SDS_P1;SDS_P2;PMS_P1;PMS_P2;Temp;Humidity;BMP_temperature;BMP_pressure;BME280_temperature;BME280_humidity;BME280_pressure;Samples;Min_cycle;Max_cycle;Signal;HPM_P1;HPM_P2
2021/11/06 00:02:02;;;;;;;6.50;1.42;;;10.10;98.30;;;;;;5011432;28;20041;-71
2021/11/06 00:04:27;;;;;;;6.10;1.52;;;10.20;98.40;;;;;;5012556;28;20032;-71
2021/11/06 00:06:53;;;;;;;5.28;1.50;;;10.20;98.40;;;;;;5011912;28;20057;-71
2021/11/06 00:09:19;;;;;;;11.80;1.50;;;10.20;98.40;;;;;;5011775;28;20068;-71
2021/11/06 00:11:45;;;;;;;7.20;1.40;;;10.20;98.40;;;;;;5012173;28;20069;-71
2021/11/06 00:14:11;;;;;;;7.33;1.40;;;10.20;98.40;;;;;;5012012;28;20586;-70
2021/11/06 00:16:37;;;;;;;7.75;1.58;;;10.20;98.40;;;;;;5011881;28;20037;-71
2021/11/06 00:19:03;;;;;;;9.40;1.38;;;10.10;98.30;;;;;;5012314;28;20084;-70
2021/11/06 00:21:28;;;;;;;5.18;1.50;;;10.20;98.20;;;;;;5011486;28;20484;-70
2021/11/06 00:23:54;;;;;;;4.05;1.35;;;10.20;98.20;;;;;;5011699;28;20077;-71
2021/11/06 00:26:20;;;;;;;11.68;1.75;;;10.20;98.30;;;;;;4994401;28;20030;-69
2021/11/06 00:28:45;;;;;;;7.50;1.75;;;10.20;98.10;;;;;;5011433;28;20032;-70
2021/11/06 00:31:11;;;;;;;7.20;1.80;;;10.20;98.30;;;;;;5012236;28;20041;-71
2021/11/06 00:33:37;;;;;;;6.80;2.08;;;10.20;98.30;;;;;;5011521;28;20132;-71
2021/11/06 00:36:03;;;;;;;7.25;2.03;;;10.30;98.20;;;;;;5011519;28;20041;-71
2021/11/06 00:38:28;;;;;;;5.75;1.60;;;10.30;98.20;;;;;;5010411;28;20130;-70
2021/11/06 00:40:54;;;;;;;10.85;1.85;;;10.20;98.10;;;;;;5011416;28;20033;-71
2021/11/06 00:43:19;;;;;;;7.88;1.98;;;10.20;98.20;;;;;;5010694;28;20026;-70
2021/11/06 00:45:45;;;;;;;9.68;1.90;;;10.30;98.20;;;;;;5011395;28;20388;-71
2021/11/06 00:48:11;;;;;;;7.50;2.42;;;10.30;98.20;;;;;;5011368;28;20052;-70
2021/11/06 00:50:37;;;;;;;7.60;2.30;;;10.30;98.20;;;;;;5011372;28;20095;-71
2021/11/06 00:53:03;;;;;;;11.18;2.28;;;10.20;98.20;;;;;;5011246;28;20030;-70
2021/11/06 00:55:29;;;;;;;6.60;2.05;;;10.20;98.40;;;;;;5011758;28;20041;-70
2021/11/06 00:57:54;;;;;;;8.90;2.50;;;10.20;98.50;;;;;;5011125;28;20411;-71
2021/11/06 01:00:21;;;;;;;8.65;2.90;;;10.20;98.40;;;;;;5011282;28;20026;-71
2021/11/06 01:02:47;;;;;;;6.63;2.60;;;10.20;98.40;;;;;;5010097;28;20060;-71
2021/11/06 01:05:14;;;;;;;10.27;2.30;;;10.20;98.50;;;;;;5011210;28;20359;-71
2021/11/06 01:07:40;;;;;;;4.35;2.53;;;10.10;98.50;;;;;;5010909;28;20060;-71
2021/11/06 01:10:09;;;;;;;9.50;2.35;;;10.20;98.50;;;;;;5011697;28;20055;-70
2021/11/06 01:12:34;;;;;;;6.95;2.17;;;10.20;98.50;;;;;;5011251;28;20053;-71
2021/11/06 01:15:01;;;;;;;4.85;2.10;;;10.20;98.50;;;;;;5011052;28;20071;-71
2021/11/06 01:17:26;;;;;;;5.40;2.22;;;10.20;98.50;;;;;;5011184;28;20049;-71
2021/11/06 01:19:52;;;;;;;10.52;3.20;;;10.20;98.50;;;;;;5011125;28;20069;-71
2021/11/06 01:22:17;;;;;;;10.30;2.58;;;10.20;98.40;;;;;;5011803;28;20061;-70
2021/11/06 01:24:43;;;;;;;7.65;2.38;;;10.10;98.40;;;;;;5011034;28;20418;-72
2021/11/06 01:27:12;;;;;;;5.97;2.00;;;10.10;98.60;;;;;;5011275;28;20471;-71
2021/11/06 01:29:38;;;;;;;7.22;2.70;;;10.20;98.50;;;;;;5011314;28;20037;-71
2021/11/06 01:32:06;;;;;;;5.30;2.33;;;10.10;98.50;;;;;;5012604;28;20491;-71
2021/11/06 01:34:35;;;;;;;5.25;2.40;;;10.20;98.50;;;;;;5015563;28;20026;-71
2021/11/06 01:37:01;;;;;;;8.30;2.38;;;10.20;98.50;;;;;;5014925;28;20034;-71
2021/11/06 01:39:27;;;;;;;9.18;2.47;;;10.20;98.50;;;;;;5014874;28;20577;-71
2021/11/06 01:41:53;;;;;;;11.02;2.80;;;10.20;98.50;;;;;;5014963;28;20511;-71
2021/11/06 01:44:19;;;;;;;8.07;3.80;;;10.20;98.40;;;;;;5014774;28;20049;-72
2021/11/06 01:46:44;;;;;;;7.53;2.67;;;10.10;98.50;;;;;;5014969;28;20455;-71
2021/11/06 01:49:10;;;;;;;6.57;2.67;;;10.10;98.50;;;;;;5015053;28;20172;-71
2021/11/06 01:51:36;;;;;;;8.10;2.63;;;10.10;98.60;;;;;;5014757;28;20041;-70
2021/11/06 01:54:02;;;;;;;8.98;2.67;;;10.10;98.50;;;;;;5014428;28;20049;-70
2021/11/06 01:56:28;;;;;;;9.02;3.00;;;10.10;98.50;;;;;;5014656;28;20065;-70
2021/11/06 01:58:54;;;;;;;6.13;2.53;;;10.10;98.40;;;;;;5014467;28;20367;-70
2021/11/06 02:01:20;;;;;;;10.35;3.28;;;10.10;98.30;;;;;;5014938;28;20030;-71
2021/11/06 02:03:47;;;;;;;6.53;2.90;;;10.10;98.30;;;;;;5014523;28;20045;-71
2021/11/06 02:06:12;;;;;;;6.60;2.33;;;10.00;98.30;;;;;;5014278;28;20042;-71
2021/11/06 02:08:38;;;;;;;15.40;3.20;;;10.10;98.40;;;;;;5014154;28;20467;-71
2021/11/06 02:11:05;;;;;;;14.20;3.00;;;10.00;98.20;;;;;;5014383;28;20037;-69
2021/11/06 02:13:31;;;;;;;6.75;2.80;;;10.00;98.30;;;;;;5013543;28;20026;-70
2021/11/06 02:15:57;;;;;;;6.65;2.72;;;10.10;98.30;;;;;;5014022;28;20046;-70
2021/11/06 02:18:23;;;;;;;9.27;2.92;;;10.10;98.30;;;;;;5014027;28;20044;-71
2021/11/06 02:20:59;;;;;;;8.98;2.92;;;10.00;98.20;;;;;;5014067;28;20475;-72
2021/11/06 02:23:25;;;;;;;8.18;2.78;;;10.00;98.30;;;;;;5013869;28;20460;-71
2021/11/06 02:25:50;;;;;;;7.20;3.45;;;10.00;98.10;;;;;;5013962;28;20058;-70
2021/11/06 02:28:16;;;;;;;8.43;3.25;;;10.00;98.20;;;;;;5014100;28;20054;-72
2021/11/06 02:30:42;;;;;;;11.73;4.00;;;10.00;98.20;;;;;;5013875;28;20034;-70
2021/11/06 02:33:07;;;;;;;13.20;3.58;;;9.90;98.60;;;;;;5013607;28;20034;-70
2021/11/06 02:35:33;;;;;;;7.43;3.35;;;10.10;98.20;;;;;;5019529;28;20038;-71
2021/11/06 02:37:59;;;;;;;8.18;3.45;;;10.00;98.00;;;;;;5033248;28;20037;-71
2021/11/06 02:40:24;;;;;;;9.30;3.80;;;10.00;98.10;;;;;;5033897;28;20022;-69
2021/11/06 02:42:50;;;;;;;11.10;4.30;;;10.00;98.10;;;;;;5033181;28;20049;-70
2021/11/06 02:45:16;;;;;;;7.82;3.65;;;10.00;98.10;;;;;;5032459;28;20034;-70
2021/11/06 02:47:41;;;;;;;9.35;4.50;;;9.90;98.70;;;;;;5033169;28;20482;-69
2021/11/06 02:50:07;;;;;;;11.70;3.70;;;9.90;98.70;;;;;;5033302;28;20029;-71
2021/11/06 02:52:33;;;;;;;10.18;5.30;;;9.90;98.70;;;;;;5032654;28;20025;-72
2021/11/06 02:54:59;;;;;;;9.85;4.63;;;9.90;98.70;;;;;;5033472;28;20198;-71
2021/11/06 02:57:24;;;;;;;16.90;5.20;;;9.90;98.70;;;;;;5033030;28;20497;-71
2021/11/06 02:59:52;;;;;;;20.38;5.18;;;9.90;98.60;;;;;;5033335;28;20375;-71
2021/11/06 03:02:18;;;;;;;7.10;4.63;;;9.90;98.50;;;;;;5048553;28;20029;-70
2021/11/06 03:04:43;;;;;;;9.60;4.85;;;9.80;98.60;;;;;;5033098;28;20412;-71
2021/11/06 03:07:09;;;;;;;12.20;4.80;;;9.80;98.60;;;;;;5048988;28;20597;-71
2021/11/06 03:09:38;;;;;;;9.98;4.85;;;9.70;98.60;;;;;;5033265;28;20025;-69
2021/11/06 03:12:06;;;;;;;11.00;5.40;;;9.80;98.70;;;;;;5033160;28;20042;-71
2021/11/06 03:14:34;;;;;;;17.63;4.97;;;9.80;98.70;;;;;;5031968;28;20324;-71
2021/11/06 03:17:00;;;;;;;;;;;9.80;98.60;;;;;;5033198;28;20037;-71
2021/11/06 03:19:25;;;;;;;9.02;5.30;;;9.70;98.60;;;;;;5032347;28;20000;-71
2021/11/06 03:21:51;;;;;;;12.00;5.05;;;9.80;98.70;;;;;;5033033;28;20030;-71
2021/11/06 03:24:17;;;;;;;11.15;5.57;;;9.80;98.60;;;;;;5032815;28;20037;-71
2021/11/06 03:26:42;;;;;;;10.55;6.28;;;9.80;98.70;;;;;;5032923;28;20048;-71
2021/11/06 03:29:08;;;;;;;11.13;5.95;;;9.80;98.60;;;;;;5032778;28;20071;-71
2021/11/06 03:31:34;;;;;;;9.93;5.32;;;9.80;98.50;;;;;;5032841;28;20033;-71
2021/11/06 03:33:59;;;;;;;13.07;6.00;;;9.80;98.60;;;;;;5033083;28;20631;-71
2021/11/06 03:36:25;;;;;;;13.05;5.88;;;9.70;98.60;;;;;;5032538;28;20040;-72
2021/11/06 03:38:51;;;;;;;11.65;6.32;;;9.70;98.70;;;;;;5032596;28;20084;-71
2021/11/06 03:41:16;;;;;;;12.98;6.88;;;9.70;98.60;;;;;;5032607;28;20025;-71
2021/11/06 03:43:42;;;;;;;10.95;6.22;;;9.70;98.70;;;;;;5032284;28;20095;-69
2021/11/06 03:46:07;;;;;;;10.73;5.78;;;9.60;99.00;;;;;;5032887;28;20037;-69
2021/11/06 03:48:36;;;;;;;14.50;6.20;;;9.70;98.70;;;;;;5032321;28;20044;-71
2021/11/06 03:51:05;;;;;;;12.82;6.57;;;9.60;98.80;;;;;;5032275;28;20037;-71
2021/11/06 03:53:31;;;;;;;16.30;6.70;;;9.60;98.60;;;;;;5032179;28;20029;-70
2021/11/06 03:55:56;;;;;;;13.65;6.43;;;9.70;98.60;;;;;;5031898;28;20424;-71
2021/11/06 03:58:22;;;;;;;10.05;5.85;;;9.80;98.60;;;;;;5032582;28;20463;-69
2021/11/06 04:00:48;;;;;;;14.77;6.43;;;9.80;98.50;;;;;;5032244;28;20570;-70
2021/11/06 04:03:14;;;;;;;12.52;7.00;;;9.80;98.40;;;;;;5031969;28;20056;-71
2021/11/06 04:05:39;;;;;;;11.48;6.00;;;9.80;98.40;;;;;;5031926;28;20055;-71
2021/11/06 04:08:05;;;;;;;12.35;6.47;;;9.80;98.40;;;;;;5032038;28;20030;-71
2021/11/06 04:10:31;;;;;;;13.85;6.80;;;9.90;98.30;;;;;;5032334;28;20021;-71
2021/11/06 04:12:56;;;;;;;15.48;7.13;;;9.90;98.30;;;;;;5031770;28;20038;-70
2021/11/06 04:15:22;;;;;;;14.55;6.35;;;9.90;98.30;;;;;;5031629;28;20026;-71
2021/11/06 04:17:48;;;;;;;11.00;6.28;;;10.00;97.70;;;;;;5031684;28;20037;-71
2021/11/06 04:20:13;;;;;;;12.57;6.75;;;9.90;98.00;;;;;;5031758;28;20029;-70
2021/11/06 04:22:39;;;;;;;12.35;5.78;;;9.90;98.10;;;;;;5031736;28;20044;-69
2021/11/06 04:25:06;;;;;;;14.13;7.03;;;9.90;98.00;;;;;;5032248;28;20017;-70
2021/11/06 04:27:32;;;;;;;14.38;6.57;;;9.90;98.00;;;;;;5031500;28;20036;-71
2021/11/06 04:29:57;;;;;;;12.65;6.15;;;9.90;97.90;;;;;;5031587;28;20029;-71
2021/11/06 04:32:23;;;;;;;13.48;6.78;;;9.90;97.90;;;;;;5031827;28;20026;-70
2021/11/06 04:34:48;;;;;;;14.60;6.45;;;9.90;98.00;;;;;;5031526;28;20098;-72
2021/11/06 04:37:14;;;;;;;12.30;5.82;;;9.90;98.00;;;;;;5031915;28;20025;-71
2021/11/06 04:39:40;;;;;;;9.40;6.15;;;9.90;97.90;;;;;;5031610;28;20189;-71
2021/11/06 04:42:06;;;;;;;10.95;6.30;;;9.80;97.90;;;;;;5030598;28;20122;-71
2021/11/06 04:44:32;;;;;;;11.23;5.85;;;9.90;97.90;;;;;;5031311;28;20108;-71
2021/11/06 04:46:58;;;;;;;9.60;6.15;;;9.90;97.90;;;;;;5031381;28;20113;-72
2021/11/06 04:49:23;;;;;;;11.88;5.90;;;10.00;97.50;;;;;;5031834;28;20021;-71
2021/11/06 04:51:49;;;;;;;14.48;6.18;;;10.00;97.30;;;;;;5031317;28;20685;-71
2021/11/06 04:54:15;;;;;;;18.83;6.10;;;10.00;97.30;;;;;;5031433;28;20026;-71
2021/11/06 04:56:42;;;;;;;16.33;5.78;;;9.90;97.60;;;;;;5031205;28;20037;-72
2021/11/06 04:59:08;;;;;;;11.98;6.47;;;9.90;97.60;;;;;;5031236;28;20064;-72
2021/11/06 05:01:33;;;;;;;11.60;5.70;;;9.90;97.60;;;;;;5031620;28;20437;-71
2021/11/06 05:03:59;;;;;;;13.57;6.10;;;10.00;97.20;;;;;;5031232;28;20098;-71
2021/11/06 05:06:26;;;;;;;14.75;6.35;;;9.90;97.70;;;;;;5030994;28;20103;-71
2021/11/06 05:08:52;;;;;;;14.55;6.20;;;9.90;97.70;;;;;;5031252;28;20124;-71
2021/11/06 05:11:18;;;;;;;12.23;6.10;;;9.90;97.60;;;;;;5031129;28;20656;-71
2021/11/06 05:13:43;;;;;;;15.38;6.13;;;9.90;97.50;;;;;;5031281;28;20308;-71
2021/11/06 05:16:09;;;;;;;13.15;6.47;;;9.90;97.30;;;;;;5031548;28;20080;-69
2021/11/06 05:18:35;;;;;;;10.13;4.95;;;9.90;97.30;;;;;;5031032;28;20076;-71
2021/11/06 05:21:01;;;;;;;15.48;6.05;;;9.90;97.40;;;;;;5031249;28;20030;-71
2021/11/06 05:23:26;;;;;;;13.35;5.97;;;9.80;97.40;;;;;;5031021;28;20030;-71
2021/11/06 05:25:52;;;;;;;16.33;6.38;;;9.80;97.40;;;;;;5031099;28;20030;-73
2021/11/06 05:28:18;;;;;;;16.05;6.10;;;9.80;97.40;;;;;;5031430;28;20666;-71
2021/11/06 05:30:44;;;;;;;9.63;5.70;;;9.80;97.30;;;;;;5031030;28;20486;-71
2021/11/06 05:33:11;;;;;;;15.18;6.03;;;9.80;97.30;;;;;;5030938;28;20525;-71
2021/11/06 05:35:37;;;;;;;13.88;6.38;;;9.90;97.40;;;;;;5031004;28;20041;-71
2021/11/06 05:38:03;;;;;;;13.15;6.28;;;9.80;97.30;;;;;;5029488;28;20021;-70
2021/11/06 05:40:30;;;;;;;13.23;5.80;;;9.90;97.30;;;;;;5031197;28;20175;-69
2021/11/06 05:42:55;;;;;;;12.07;7.18;;;9.90;97.20;;;;;;5030674;28;20417;-70
2021/11/06 05:45:21;;;;;;;18.60;6.55;;;9.90;97.20;;;;;;5030717;28;20112;-71
2021/11/06 05:47:47;;;;;;;17.77;6.53;;;9.80;97.10;;;;;;5030838;28;20037;-69
2021/11/06 05:50:15;;;;;;;10.90;6.57;;;9.90;97.30;;;;;;5030533;28;20091;-71
2021/11/06 05:52:40;;;;;;;;;;;10.00;96.80;;;;;;5031095;28;20108;-72
2021/11/06 05:55:09;;;;;;;15.85;6.85;;;10.00;96.70;;;;;;5031083;28;20000;-70
2021/11/06 05:57:35;;;;;;;13.73;6.78;;;10.00;96.50;;;;;;5029568;28;20029;-70
2021/11/06 06:00:04;;;;;;;13.50;7.15;;;10.00;96.50;;;;;;5030724;28;20036;-70
2021/11/06 06:02:30;;;;;;;21.23;7.88;;;10.00;96.50;;;;;;5030457;28;20451;-71
2021/11/06 06:04:55;;;;;;;16.20;7.28;;;10.00;96.40;;;;;;5030672;28;20083;-71
2021/11/06 06:07:21;;;;;;;15.00;8.13;;;10.00;96.40;;;;;;5046277;28;20045;-71
2021/11/06 06:09:46;;;;;;;17.35;7.72;;;10.00;96.50;;;;;;5030486;28;20079;-72
2021/11/06 06:12:12;;;;;;;12.27;7.60;;;10.00;96.40;;;;;;5030611;28;20018;-71
2021/11/06 06:14:38;;;;;;;15.13;8.48;;;10.10;96.50;;;;;;5030613;28;20033;-71
2021/11/06 06:17:04;;;;;;;17.52;8.55;;;10.10;96.50;;;;;;5029604;28;20426;-70
2021/11/06 06:19:29;;;;;;;16.63;8.50;;;10.20;96.50;;;;;;5034288;28;20057;-71
2021/11/06 06:21:55;;;;;;;15.93;8.25;;;10.20;96.40;;;;;;5033867;28;20038;-70
2021/11/06 06:24:20;;;;;;;20.70;9.65;;;10.20;96.50;;;;;;5033919;28;20176;-71
2021/11/06 06:26:46;;;;;;;16.42;9.35;;;10.10;96.50;;;;;;5033810;28;20029;-70
2021/11/06 06:29:11;;;;;;;19.90;9.25;;;10.10;96.40;;;;;;5033944;28;20052;-71
2021/11/06 06:31:37;;;;;;;18.70;8.82;;;10.10;96.40;;;;;;5033837;28;20081;-69
2021/11/06 06:34:03;;;;;;;21.00;10.20;;;10.10;96.50;;;;;;5034391;28;20156;-70
2021/11/06 06:36:29;;;;;;;16.92;9.95;;;10.20;96.30;;;;;;5033590;28;20038;-71
2021/11/06 06:38:54;;;;;;;19.52;9.93;;;10.20;96.30;;;;;;5033762;28;20041;-70
2021/11/06 06:41:20;;;;;;;20.17;9.13;;;10.20;96.30;;;;;;5033608;28;20025;-71
2021/11/06 06:43:46;;;;;;;19.13;9.73;;;10.30;96.30;;;;;;5033698;28;20112;-71
2021/11/06 06:46:12;;;;;;;17.10;9.80;;;10.30;96.30;;;;;;5033825;28;20025;-70
2021/11/06 06:48:37;;;;;;;14.77;9.15;;;10.20;96.20;;;;;;5033456;28;20392;-71
2021/11/06 06:51:03;;;;;;;22.83;10.50;;;10.30;96.20;;;;;;5033432;28;20033;-72
2021/11/06 06:53:29;;;;;;;18.35;9.80;;;10.20;96.20;;;;;;5033569;28;20459;-72
2021/11/06 06:55:54;;;;;;;17.75;10.15;;;10.30;96.30;;;;;;5033206;28;20033;-71
2021/11/06 06:58:20;;;;;;;18.30;9.73;;;10.30;96.30;;;;;;5033610;28;20038;-71
2021/11/06 07:00:45;;;;;;;19.83;9.75;;;10.20;96.30;;;;;;5033409;28;20071;-71
2021/11/06 07:03:11;;;;;;;21.73;10.85;;;10.30;96.40;;;;;;5033016;28;20039;-71
2021/11/06 07:05:37;;;;;;;18.67;10.45;;;10.30;96.40;;;;;;5032974;28;20087;-71
2021/11/06 07:08:05;;;;;;;16.50;9.68;;;10.30;96.40;;;;;;5033130;28;20025;-71
2021/11/06 07:10:31;;;;;;;21.52;10.20;;;10.20;96.40;;;;;;5033541;28;20049;-71
2021/11/06 07:12:57;;;;;;;19.77;10.82;;;10.30;96.40;;;;;;5033009;28;20102;-70
2021/11/06 07:15:22;;;;;;;19.20;10.35;;;10.20;96.30;;;;;;5032932;28;20033;-72
2021/11/06 07:17:48;;;;;;;22.38;10.48;;;10.30;96.30;;;;;;5032897;28;20434;-70
2021/11/06 07:20:15;;;;;;;20.80;10.50;;;10.30;96.30;;;;;;5033004;28;20034;-70
2021/11/06 07:22:41;;;;;;;27.10;10.65;;;10.30;96.30;;;;;;5032694;28;20018;-71
2021/11/06 07:25:07;;;;;;;21.52;10.65;;;10.30;96.30;;;;;;5033061;28;20470;-70
2021/11/06 07:27:34;;;;;;;21.23;10.63;;;10.30;96.30;;;;;;5032553;28;20036;-71
2021/11/06 07:30:00;;;;;;;24.23;10.75;;;10.30;96.30;;;;;;5031527;28;20529;-69
2021/11/06 07:32:25;;;;;;;21.23;9.68;;;10.40;96.50;;;;;;5031425;28;20034;-70
2021/11/06 07:34:51;;;;;;;22.25;10.85;;;10.40;96.30;;;;;;5032638;28;20071;-71
2021/11/06 07:37:16;;;;;;;26.05;9.77;;;10.20;96.20;;;;;;5033165;28;20517;-69
2021/11/06 07:39:42;;;;;;;20.02;9.75;;;10.30;96.30;;;;;;5031698;28;20033;-70
2021/11/06 07:42:08;;;;;;;23.35;10.38;;;10.40;96.40;;;;;;5032462;28;20139;-71
2021/11/06 07:44:33;;;;;;;24.20;9.98;;;10.40;96.20;;;;;;5032354;28;20219;-70
2021/11/06 07:46:59;;;;;;;16.95;9.52;;;10.40;96.10;;;;;;5032227;28;20109;-71
2021/11/06 07:49:25;;;;;;;21.52;9.85;;;10.40;96.20;;;;;;5032535;28;20101;-71
2021/11/06 07:51:51;;;;;;;18.83;9.63;;;10.50;96.10;;;;;;5048157;28;20059;-70
2021/11/06 07:54:17;;;;;;;15.88;8.63;;;10.50;96.10;;;;;;5032123;28;20030;-72
2021/11/06 07:56:43;;;;;;;20.55;9.13;;;10.40;96.20;;;;;;5032121;28;20047;-70
2021/11/06 07:59:09;;;;;;;20.90;9.15;;;10.50;96.10;;;;;;5032386;28;20037;-71
2021/11/06 08:01:35;;;;;;;18.83;8.55;;;10.50;96.30;;;;;;5031896;28;20055;-69
2021/11/06 08:04:01;;;;;;;25.65;9.18;;;10.50;96.00;;;;;;5032285;28;20041;-72
2021/11/06 08:06:27;;;;;;;22.00;7.53;;;10.50;95.80;;;;;;5012538;28;20050;-71
2021/11/06 08:08:52;;;;;;;20.77;10.32;;;10.50;96.00;;;;;;5011871;28;20399;-71
2021/11/06 08:11:18;;;;;;;20.05;7.85;;;10.50;95.90;;;;;;5011723;28;20045;-71
2021/11/06 08:13:44;;;;;;;16.75;8.52;;;10.50;95.80;;;;;;5028030;28;20436;-70
2021/11/06 08:16:10;;;;;;;14.75;7.95;;;10.50;95.80;;;;;;5012373;28;20029;-71
2021/11/06 08:18:35;;;;;;;22.20;8.15;;;10.50;95.80;;;;;;5011994;28;20022;-72
2021/11/06 08:21:01;;;;;;;19.45;8.98;;;10.60;95.90;;;;;;5011671;28;20033;-72
2021/11/06 08:23:26;;;;;;;19.02;8.40;;;10.60;95.70;;;;;;5010570;28;20030;-71
2021/11/06 08:25:52;;;;;;;18.67;7.57;;;10.60;95.70;;;;;;5011982;28;20571;-71
2021/11/06 08:28:18;;;;;;;17.98;7.45;;;10.70;95.80;;;;;;5012156;28;20033;-69
2021/11/06 08:30:44;;;;;;;19.08;7.75;;;10.70;95.70;;;;;;5011826;28;20038;-71
2021/11/06 08:33:10;;;;;;;16.05;7.38;;;10.80;95.80;;;;;;5010573;28;20042;-71
2021/11/06 08:35:38;;;;;;;20.52;8.63;;;10.80;95.70;;;;;;5011712;28;20038;-70
2021/11/06 08:38:04;;;;;;;17.23;7.55;;;10.80;95.40;;;;;;5011217;28;20109;-70
2021/11/06 08:40:30;;;;;;;15.07;7.60;;;10.80;95.40;;;;;;5011566;28;20109;-70
2021/11/06 08:42:56;;;;;;;16.58;7.85;;;10.80;95.30;;;;;;5011419;28;20054;-71
2021/11/06 08:45:22;;;;;;;19.80;8.70;;;10.80;95.40;;;;;;5011359;28;20060;-71
2021/11/06 08:47:48;;;;;;;15.07;7.05;;;10.80;95.40;;;;;;5011255;28;20125;-71
2021/11/06 08:50:18;;;;;;;14.55;6.65;;;10.80;95.40;;;;;;5011184;28;20042;-71
2021/11/06 08:52:44;;;;;;;19.75;7.28;;;10.80;95.10;;;;;;5011277;28;20049;-70
2021/11/06 08:55:09;;;;;;;15.45;6.60;;;10.80;95.10;;;;;;5010407;28;20072;-70
2021/11/06 08:57:38;;;;;;;17.33;6.47;;;10.90;95.20;;;;;;4994090;28;20076;-71
2021/11/06 09:00:14;;;;;;;16.85;6.28;;;10.90;95.10;;;;;;5011039;28;20030;-69
2021/11/06 09:02:40;;;;;;;13.20;6.13;;;10.90;94.90;;;;;;5011263;28;20037;-70
2021/11/06 09:05:08;;;;;;;17.15;6.88;;;10.90;94.90;;;;;;5009782;28;20057;-70
2021/11/06 09:07:35;;;;;;;12.35;5.38;;;11.10;95.10;;;;;;5011151;28;20137;-70
2021/11/06 09:10:04;;;;;;;15.57;6.30;;;11.00;94.70;;;;;;5011076;28;20060;-71
2021/11/06 09:12:29;;;;;;;13.25;5.90;;;11.10;94.80;;;;;;5011144;28;20103;-70
2021/11/06 09:14:55;;;;;;;16.00;6.10;;;11.20;94.70;;;;;;5010999;28;20388;-70
2021/11/06 09:17:21;;;;;;;11.35;6.00;;;11.10;94.60;;;;;;5009664;28;20429;-71
2021/11/06 09:19:47;;;;;;;13.55;6.13;;;11.10;94.70;;;;;;5011306;28;20036;-71
2021/11/06 09:22:12;;;;;;;14.23;6.97;;;11.20;94.80;;;;;;5011576;28;20029;-71
2021/11/06 09:24:40;;;;;;;12.05;6.45;;;11.20;94.70;;;;;;5011159;28;20103;-70
2021/11/06 09:27:06;;;;;;;16.02;7.22;;;11.10;94.50;;;;;;5010894;28;20066;-70
2021/11/06 09:29:32;;;;;;;15.93;6.10;;;11.20;94.60;;;;;;5009489;28;20371;-69
2021/11/06 09:31:57;;;;;;;13.07;5.15;;;11.10;94.50;;;;;;5010635;28;20064;-70
2021/11/06 09:34:23;;;;;;;12.50;5.60;;;11.20;94.40;;;;;;5011299;28;20100;-70
2021/11/06 09:36:48;;;;;;;12.13;5.50;;;11.10;94.40;;;;;;5010756;28;20034;-71
2021/11/06 09:39:14;;;;;;;10.90;5.60;;;11.20;94.40;;;;;;5011156;28;20041;-70
2021/11/06 09:41:41;;;;;;;13.27;5.70;;;11.20;94.40;;;;;;5010880;28;20030;-70
2021/11/06 09:44:07;;;;;;;13.02;5.50;;;11.10;94.30;;;;;;5010860;28;20022;-71
2021/11/06 09:46:33;;;;;;;12.13;5.13;;;11.10;94.30;;;;;;5011171;28;20025;-71
2021/11/06 09:48:59;;;;;;;13.40;4.78;;;11.20;94.40;;;;;;5011094;28;20121;-71
2021/11/06 09:51:25;;;;;;;9.38;4.78;;;11.10;94.00;;;;;;4993285;28;20034;-70
2021/11/06 09:53:52;;;;;;;11.20;5.13;;;11.10;94.20;;;;;;5013306;28;20219;-70
2021/11/06 09:56:23;;;;;;;12.57;5.33;;;11.10;94.20;;;;;;5014467;28;20042;-70
2021/11/06 09:58:50;;;;;;;12.70;4.97;;;11.10;94.30;;;;;;5014393;28;20274;-69
2021/11/06 10:01:16;;;;;;;9.68;5.00;;;11.10;94.20;;;;;;5013963;28;20026;-70
2021/11/06 10:03:43;;;;;;;10.27;5.05;;;11.10;94.20;;;;;;5014206;28;20040;-71
2021/11/06 10:06:26;;;;;;;12.18;4.72;;;11.10;94.40;;;;;;5013745;28;20080;-70
2021/11/06 10:08:54;;;;;;;16.50;5.07;;;11.10;94.20;;;;;;5013115;28;20037;-69
2021/11/06 10:11:29;;;;;;;11.52;4.97;;;11.20;94.30;;;;;;5013996;28;20052;-69
2021/11/06 10:14:05;;;;;;;9.43;4.85;;;11.20;94.10;;;;;;5014184;28;20029;-71
2021/11/06 10:16:53;;;;;;;9.98;5.15;;;11.20;94.10;;;;;;4996930;28;20036;-69
2021/11/06 10:19:26;;;;;;;13.10;4.80;;;11.20;94.10;;;;;;5014061;28;20052;-70
2021/11/06 10:22:04;;;;;;;11.25;4.88;;;11.10;94.10;;;;;;5014224;28;20468;-71
2021/11/06 10:24:43;;;;;;;12.90;5.15;;;11.20;94.10;;;;;;5013807;28;20022;-71
2021/11/06 10:27:21;;;;;;;10.38;4.82;;;11.10;94.10;;;;;;5013750;28;20029;-71
2021/11/06 10:30:05;;;;;;;13.00;5.00;;;11.00;94.10;;;;;;5013878;28;20546;-70
2021/11/06 10:32:32;;;;;;;11.05;5.60;;;11.00;94.10;;;;;;5013910;28;20116;-70
2021/11/06 10:35:15;;;;;;;17.35;5.18;;;11.10;94.30;;;;;;5012739;28;20061;-71
2021/11/06 10:37:41;;;;;;;10.68;4.80;;;11.00;94.40;;;;;;5013720;28;20087;-70
2021/11/06 10:40:11;;;;;;;14.43;4.47;;;11.00;94.40;;;;;;5012908;28;20120;-70
2021/11/06 10:42:48;;;;;;;13.82;5.47;;;11.00;94.40;;;;;;5013371;28;20113;-70
2021/11/06 10:45:17;;;;;;;18.85;10.32;;;11.00;94.50;;;;;;5012488;28;20034;-70
2021/11/06 10:48:03;;;;;;;12.02;6.32;;;11.00;94.60;;;;;;5013301;28;20533;-70
2021/11/06 10:50:48;;;;;;;10.15;4.70;;;11.00;94.60;;;;;;5013405;28;20091;-71
2021/11/06 10:53:34;;;;;;;12.35;5.20;;;10.90;94.70;;;;;;5013422;28;20067;-70
2021/11/06 10:56:03;;;;;;;11.55;4.32;;;10.90;94.70;;;;;;5011801;28;20034;-70
2021/11/06 10:58:35;;;;;;;10.00;5.43;;;10.90;94.80;;;;;;5013703;28;20041;-71
2021/11/06 11:01:06;;;;;;;12.48;5.53;;;10.90;94.90;;;;;;5013561;28;20096;-70
2021/11/06 11:03:42;;;;;;;8.85;5.15;;;10.90;95.00;;;;;;5012955;28;20045;-71
2021/11/06 11:06:10;;;;;;;12.30;5.15;;;10.90;95.10;;;;;;5012982;28;20372;-71
2021/11/06 11:08:46;;;;;;;9.82;5.10;;;10.90;95.20;;;;;;5012879;28;20030;-70
2021/11/06 11:11:13;;;;;;;11.68;5.05;;;11.10;95.20;;;;;;5012985;28;20030;-71
2021/11/06 11:13:51;;;;;;;9.63;5.55;;;11.10;95.10;;;;;;5012923;28;20048;-70
2021/11/06 11:16:17;;;;;;;13.32;6.10;;;11.00;95.10;;;;;;5013219;28;20034;-70
2021/11/06 11:18:45;;;;;;;13.70;5.90;;;11.10;95.20;;;;;;5012978;28;20026;-70
2021/11/06 11:21:25;;;;;;;12.30;5.68;;;11.10;95.10;;;;;;5012944;28;20030;-71
2021/11/06 11:23:57;;;;;;;9.63;4.80;;;11.00;95.10;;;;;;5012829;28;20033;-70
2021/11/06 11:26:31;;;;;;;13.40;5.65;;;11.10;95.20;;;;;;5012897;28;20145;-69
2021/11/06 11:28:58;;;;;;;10.48;5.63;;;11.10;95.30;;;;;;5013035;28;20376;-70
2021/11/06 11:31:25;;;;;;;16.63;5.78;;;11.10;95.20;;;;;;5013116;28;20033;-70
2021/11/06 11:33:51;;;;;;;11.38;5.70;;;11.20;95.20;;;;;;5012798;28;20079;-70
2021/11/06 11:36:21;;;;;;;11.60;5.88;;;11.20;95.10;;;;;;5012684;28;20037;-71
2021/11/06 11:38:47;;;;;;;10.68;5.28;;;11.20;95.10;;;;;;5012576;28;20034;-69
2021/11/06 11:41:41;;;;;;;9.35;5.03;;;11.20;95.10;;;;;;5012346;28;20051;-70
2021/11/06 11:44:28;;;;;;;10.30;4.68;;;11.20;95.20;;;;;;5011152;28;20045;-70
2021/11/06 11:47:00;;;;;;;10.27;5.15;;;11.30;95.10;;;;;;5012526;28;20034;-70
2021/11/06 11:49:39;;;;;;;12.57;5.65;;;11.30;95.10;;;;;;5011741;28;20025;-70
2021/11/06 11:52:37;;;;;;;20.45;6.60;;;11.30;95.10;;;;;;5011344;28;20034;-71
2021/11/06 11:55:07;;;;;;;10.23;5.75;;;11.40;95.10;;;;;;4979787;28;20559;-70
2021/11/06 11:57:39;;;;;;;10.07;5.35;;;11.30;95.10;;;;;;5012260;28;20045;-70
2021/11/06 12:00:27;;;;;;;13.10;5.13;;;11.40;95.10;;;;;;5010822;28;20026;-70
2021/11/06 12:03:05;;;;;;;13.02;6.20;;;11.40;95.00;;;;;;5011915;28;20069;-69
2021/11/06 12:05:32;;;;;;;13.77;5.97;;;11.40;95.10;;;;;;5011583;28;20552;-69
2021/11/06 12:08:09;;;;;;;18.33;8.45;;;11.30;95.00;;;;;;5011359;28;20065;-70
2021/11/06 12:10:59;;;;;;;11.38;5.30;;;11.30;95.00;;;;;;5010852;28;20022;-70
2021/11/06 12:13:28;;;;;;;16.50;5.75;;;11.30;95.00;;;;;;5012360;28;20096;-70
2021/11/06 12:15:59;;;;;;;8.25;4.63;;;11.30;94.90;;;;;;5009869;28;20029;-69
2021/11/06 12:18:34;;;;;;;11.23;5.28;;;11.40;94.90;;;;;;5010939;28;20345;-70
2021/11/06 12:21:15;;;;;;;10.38;4.88;;;11.40;94.80;;;;;;5011811;28;20033;-70
2021/11/06 12:23:42;;;;;;;8.85;4.47;;;11.50;94.80;;;;;;5011571;28;20103;-69
2021/11/06 12:26:44;;;;;;;13.75;4.82;;;11.50;94.70;;;;;;5011474;28;20120;-69
2021/11/06 12:29:09;;;;;;;9.75;4.65;;;11.50;94.70;;;;;;5011026;28;20034;-70
2021/11/06 12:31:38;;;;;;;11.40;6.00;;;11.50;94.70;;;;;;5011346;28;20033;-71
2021/11/06 12:34:07;;;;;;;7.35;4.53;;;11.60;94.60;;;;;;5011993;28;20056;-71
2021/11/06 12:36:41;;;;;;;13.65;5.10;;;11.50;94.70;;;;;;5011229;28;20444;-71
2021/11/06 12:39:07;;;;;;;11.85;4.70;;;11.60;94.60;;;;;;5010474;28;20384;-71
2021/11/06 12:41:38;;;;;;;12.55;5.60;;;11.60;94.50;;;;;;5011531;28;20095;-70
2021/11/06 12:44:08;;;;;;;8.60;5.05;;;11.70;94.50;;;;;;5011639;28;20034;-69